VTK225 USSS-UUEE
Flight info
| Callsign | VTK225 |
|---|---|
| Flight time | 2h 4m |
| Altitude | 34000 |
| Route | N0470F340 LUNAG M864 KERUN P164 IDMOR M864 IBROT T535 URIDU L158 DIMGI |
| Aircraft | A321/M-VGDW/C |
Departure
| Time | 2026-05-05 12:08 |
|---|---|
| Airport | Koltsovo Airport (USSS) |
Arrival
| Time | 2026-05-05 14:12 |
|---|---|
| Airport | Sheremetyevo International Airport (UUEE) |
| Time | Latitude | Longitude | Altitude | Speed | Heading |
|---|---|---|---|---|---|
| 2026-05-05 11:44 | 56.74938 | 60.80677 | 777 ft | 0 kts | 0° |
| 2026-05-05 12:00 | 56.74933 | 60.80677 | 776 ft | 3 kts | 0° |
| 2026-05-05 12:00 | 56.74914 | 60.80677 | 776 ft | 3 kts | 0° |
| 2026-05-05 12:00 | 56.74896 | 60.80677 | 776 ft | 0 kts | 0° |
| 2026-05-05 12:01 | 56.74879 | 60.80678 | 776 ft | 3 kts | 17° |
| 2026-05-05 12:01 | 56.74864 | 60.80658 | 777 ft | 3 kts | 79° |
| 2026-05-05 12:01 | 56.74863 | 60.80649 | 776 ft | 0 kts | 85° |
| 2026-05-05 12:02 | 56.74863 | 60.80650 | 776 ft | 1 kts | 85° |
| 2026-05-05 12:02 | 56.74859 | 60.80731 | 777 ft | 11 kts | 97° |
| 2026-05-05 12:02 | 56.74853 | 60.80871 | 777 ft | 12 kts | 91° |
| 2026-05-05 12:03 | 56.74856 | 60.81050 | 777 ft | 14 kts | 86° |
| 2026-05-05 12:03 | 56.74862 | 60.81222 | 777 ft | 13 kts | 87° |
| 2026-05-05 12:03 | 56.74863 | 60.81382 | 777 ft | 14 kts | 90° |
| 2026-05-05 12:03 | 56.74864 | 60.81588 | 777 ft | 18 kts | 90° |
| 2026-05-05 12:04 | 56.74863 | 60.81755 | 777 ft | 3 kts | 92° |
| 2026-05-05 12:04 | 56.74862 | 60.81791 | 777 ft | 3 kts | 92° |
| 2026-05-05 12:04 | 56.74846 | 60.81910 | 777 ft | 15 kts | 114° |
| 2026-05-05 12:04 | 56.74800 | 60.82066 | 777 ft | 13 kts | 117° |
| 2026-05-05 12:05 | 56.74753 | 60.82190 | 777 ft | 11 kts | 152° |
| 2026-05-05 12:05 | 56.74669 | 60.82199 | 777 ft | 14 kts | 179° |
| 2026-05-05 12:05 | 56.74574 | 60.82201 | 777 ft | 13 kts | 179° |
| 2026-05-05 12:05 | 56.74513 | 60.82202 | 777 ft | 12 kts | 180° |
| 2026-05-05 12:06 | 56.74427 | 60.82195 | 777 ft | 15 kts | 184° |
| 2026-05-05 12:06 | 56.74307 | 60.82179 | 777 ft | 17 kts | 184° |
| 2026-05-05 12:06 | 56.74192 | 60.82163 | 777 ft | 16 kts | 184° |
| 2026-05-05 12:06 | 56.74101 | 60.82153 | 777 ft | 10 kts | 184° |
| 2026-05-05 12:07 | 56.74066 | 60.82116 | 777 ft | 6 kts | 255° |
| 2026-05-05 12:07 | 56.74074 | 60.81847 | 777 ft | 51 kts | 274° |
| 2026-05-05 12:07 | 56.74117 | 60.80805 | 782 ft | 111 kts | 274° |
| 2026-05-05 12:07 | 56.74185 | 60.79081 | 779 ft | 156 kts | 274° |
| 2026-05-05 12:08 | 56.74260 | 60.77021 | 1130 ft | 164 kts | 274° |
| 2026-05-05 12:08 | 56.74306 | 60.74936 | 1743 ft | 164 kts | 270° |
| 2026-05-05 12:08 | 56.74326 | 60.72858 | 2367 ft | 164 kts | 271° |
| 2026-05-05 12:08 | 56.74346 | 60.70698 | 2728 ft | 178 kts | 271° |
| 2026-05-05 12:09 | 56.74369 | 60.68302 | 2934 ft | 200 kts | 271° |
| 2026-05-05 12:09 | 56.74396 | 60.65654 | 3139 ft | 224 kts | 271° |
| 2026-05-05 12:09 | 56.74428 | 60.62657 | 3418 ft | 248 kts | 271° |
| 2026-05-05 12:09 | 56.74464 | 60.59457 | 4104 ft | 255 kts | 272° |
| 2026-05-05 12:10 | 56.74501 | 60.56202 | 4923 ft | 258 kts | 272° |
| 2026-05-05 12:10 | 56.74652 | 60.52935 | 5740 ft | 260 kts | 278° |
| 2026-05-05 12:10 | 56.74966 | 60.49666 | 6509 ft | 264 kts | 281° |
| 2026-05-05 12:10 | 56.75346 | 60.46375 | 7283 ft | 267 kts | 282° |
| 2026-05-05 12:11 | 56.75742 | 60.43055 | 8063 ft | 270 kts | 282° |
| 2026-05-05 12:11 | 56.76137 | 60.39683 | 8798 ft | 274 kts | 282° |
| 2026-05-05 12:11 | 56.76522 | 60.36264 | 9554 ft | 277 kts | 281° |
| 2026-05-05 12:11 | 56.76901 | 60.32793 | 10155 ft | 286 kts | 281° |
| 2026-05-05 12:12 | 56.77298 | 60.29090 | 10316 ft | 309 kts | 281° |
| 2026-05-05 12:12 | 56.77718 | 60.25108 | 10516 ft | 329 kts | 281° |
| 2026-05-05 12:12 | 56.78148 | 60.20957 | 11044 ft | 336 kts | 281° |
| 2026-05-05 12:12 | 56.78584 | 60.16740 | 11693 ft | 340 kts | 282° |
| 2026-05-05 12:13 | 56.78999 | 60.12467 | 12363 ft | 344 kts | 280° |
| 2026-05-05 12:13 | 56.79322 | 60.08116 | 13035 ft | 348 kts | 278° |
| 2026-05-05 12:13 | 56.79586 | 60.03716 | 13695 ft | 351 kts | 277° |
| 2026-05-05 12:13 | 56.79830 | 59.99257 | 14293 ft | 355 kts | 277° |
| 2026-05-05 12:14 | 56.80070 | 59.94757 | 14912 ft | 357 kts | 277° |
| 2026-05-05 12:14 | 56.80316 | 59.90227 | 15533 ft | 360 kts | 277° |
| 2026-05-05 12:14 | 56.80571 | 59.85658 | 16116 ft | 364 kts | 277° |
| 2026-05-05 12:14 | 56.80840 | 59.81049 | 16690 ft | 367 kts | 278° |
| 2026-05-05 12:15 | 56.81118 | 59.76397 | 17241 ft | 370 kts | 278° |
| 2026-05-05 12:15 | 56.81398 | 59.71701 | 17812 ft | 374 kts | 278° |
| 2026-05-05 12:15 | 56.81678 | 59.66962 | 18336 ft | 377 kts | 278° |
| 2026-05-05 12:15 | 56.81960 | 59.62180 | 18803 ft | 381 kts | 278° |
| 2026-05-05 12:16 | 56.82238 | 59.57354 | 19264 ft | 384 kts | 277° |
| 2026-05-05 12:16 | 56.82514 | 59.52483 | 19719 ft | 387 kts | 277° |
| 2026-05-05 12:16 | 56.82788 | 59.47568 | 20171 ft | 391 kts | 277° |
| 2026-05-05 12:16 | 56.83064 | 59.42622 | 20620 ft | 394 kts | 277° |
| 2026-05-05 12:17 | 56.83342 | 59.37622 | 21070 ft | 397 kts | 278° |
| 2026-05-05 12:17 | 56.83624 | 59.32581 | 21513 ft | 401 kts | 278° |
| 2026-05-05 12:17 | 56.83906 | 59.27498 | 21937 ft | 404 kts | 278° |
| 2026-05-05 12:17 | 56.84189 | 59.22374 | 22365 ft | 407 kts | 278° |
| 2026-05-05 12:18 | 56.84470 | 59.17209 | 22808 ft | 410 kts | 277° |
| 2026-05-05 12:18 | 56.84747 | 59.12003 | 23237 ft | 413 kts | 277° |
| 2026-05-05 12:18 | 56.85019 | 59.06754 | 23631 ft | 417 kts | 277° |
| 2026-05-05 12:18 | 56.85219 | 59.01524 | 23998 ft | 419 kts | 275° |
| 2026-05-05 12:19 | 56.85344 | 58.96196 | 24429 ft | 420 kts | 274° |
| 2026-05-05 12:19 | 56.85421 | 58.90847 | 24827 ft | 422 kts | 273° |
| 2026-05-05 12:19 | 56.85479 | 58.85473 | 25209 ft | 424 kts | 273° |
| 2026-05-05 12:19 | 56.85537 | 58.80085 | 25583 ft | 426 kts | 273° |
| 2026-05-05 12:20 | 56.85605 | 58.74661 | 25948 ft | 428 kts | 274° |
| 2026-05-05 12:20 | 56.85684 | 58.69212 | 26311 ft | 430 kts | 274° |
| 2026-05-05 12:20 | 56.85771 | 58.63738 | 26670 ft | 432 kts | 274° |
| 2026-05-05 12:20 | 56.85860 | 58.58238 | 27022 ft | 434 kts | 274° |
| 2026-05-05 12:21 | 56.85950 | 58.52711 | 27369 ft | 436 kts | 274° |
| 2026-05-05 12:21 | 56.86038 | 58.47159 | 27706 ft | 438 kts | 274° |
| 2026-05-05 12:21 | 56.86123 | 58.41580 | 28038 ft | 440 kts | 274° |
| 2026-05-05 12:21 | 56.86207 | 58.35974 | 28354 ft | 442 kts | 274° |
| 2026-05-05 12:22 | 56.86287 | 58.30344 | 28674 ft | 444 kts | 274° |
| 2026-05-05 12:22 | 56.86364 | 58.24689 | 28986 ft | 446 kts | 274° |
| 2026-05-05 12:22 | 56.86439 | 58.19009 | 29301 ft | 448 kts | 274° |
| 2026-05-05 12:22 | 56.86507 | 58.13303 | 29609 ft | 450 kts | 274° |
| 2026-05-05 12:23 | 56.86571 | 58.07587 | 29946 ft | 451 kts | 274° |
| 2026-05-05 12:23 | 56.86630 | 58.01864 | 30319 ft | 450 kts | 274° |
| 2026-05-05 12:23 | 56.86685 | 57.96154 | 30690 ft | 449 kts | 274° |
| 2026-05-05 12:23 | 56.86740 | 57.90463 | 31088 ft | 447 kts | 274° |
| 2026-05-05 12:24 | 56.86793 | 57.84802 | 31517 ft | 444 kts | 273° |
| 2026-05-05 12:24 | 56.86844 | 57.79166 | 31915 ft | 443 kts | 273° |
| 2026-05-05 12:24 | 56.86896 | 57.73544 | 32296 ft | 442 kts | 273° |
| 2026-05-05 12:24 | 56.86946 | 57.67935 | 32678 ft | 441 kts | 273° |
| 2026-05-05 12:25 | 56.86994 | 57.62335 | 33046 ft | 440 kts | 273° |
| 2026-05-05 12:25 | 56.87036 | 57.56746 | 33416 ft | 439 kts | 273° |
| 2026-05-05 12:25 | 56.87072 | 57.51165 | 33773 ft | 439 kts | 273° |
| 2026-05-05 12:25 | 56.87106 | 57.45594 | 33862 ft | 436 kts | 273° |
| 2026-05-05 12:26 | 56.87172 | 57.34612 | 33867 ft | 431 kts | 273° |
| 2026-05-05 12:26 | 56.87238 | 57.23677 | 33867 ft | 430 kts | 273° |
| 2026-05-05 12:27 | 56.87287 | 57.12749 | 33868 ft | 430 kts | 273° |
| 2026-05-05 12:27 | 56.87322 | 57.01821 | 33868 ft | 430 kts | 272° |
| 2026-05-05 12:28 | 56.87348 | 56.90898 | 33865 ft | 429 kts | 272° |
| 2026-05-05 12:28 | 56.87365 | 56.79993 | 33869 ft | 428 kts | 272° |
| 2026-05-05 12:29 | 56.87377 | 56.69122 | 33872 ft | 427 kts | 272° |
| 2026-05-05 12:29 | 56.87379 | 56.58289 | 33869 ft | 426 kts | 272° |
| 2026-05-05 12:30 | 56.87370 | 56.47532 | 33846 ft | 426 kts | 272° |
| 2026-05-05 12:30 | 56.87398 | 56.36719 | 33847 ft | 425 kts | 273° |
| 2026-05-05 12:31 | 56.87529 | 56.25927 | 33846 ft | 424 kts | 273° |
| 2026-05-05 12:31 | 56.87656 | 56.15141 | 33845 ft | 424 kts | 273° |
| 2026-05-05 12:32 | 56.87753 | 56.04368 | 33839 ft | 424 kts | 273° |
| 2026-05-05 12:32 | 56.87820 | 55.93582 | 33842 ft | 424 kts | 272° |
| 2026-05-05 12:33 | 56.87808 | 55.82796 | 33847 ft | 424 kts | 271° |
| 2026-05-05 12:33 | 56.87656 | 55.72022 | 33842 ft | 423 kts | 270° |
| 2026-05-05 12:34 | 56.87474 | 55.61272 | 33843 ft | 423 kts | 270° |
| 2026-05-05 12:34 | 56.87313 | 55.50539 | 33842 ft | 422 kts | 270° |
| 2026-05-05 12:35 | 56.87162 | 55.39816 | 33837 ft | 422 kts | 270° |
| 2026-05-05 12:35 | 56.87004 | 55.29110 | 33842 ft | 422 kts | 270° |
| 2026-05-05 12:36 | 56.86833 | 55.18396 | 33836 ft | 422 kts | 270° |
| 2026-05-05 12:36 | 56.86644 | 55.07685 | 33823 ft | 422 kts | 270° |
| 2026-05-05 12:37 | 56.86444 | 54.96971 | 33827 ft | 422 kts | 269° |
| 2026-05-05 12:37 | 56.86234 | 54.86253 | 33829 ft | 422 kts | 269° |
| 2026-05-05 12:38 | 56.86023 | 54.75531 | 33833 ft | 422 kts | 269° |
| 2026-05-05 12:38 | 56.85797 | 54.64825 | 33838 ft | 422 kts | 269° |
| 2026-05-05 12:39 | 56.85582 | 54.54120 | 33837 ft | 421 kts | 270° |
| 2026-05-05 12:39 | 56.85449 | 54.43496 | 33837 ft | 421 kts | 270° |
| 2026-05-05 12:40 | 56.85327 | 54.32804 | 33830 ft | 421 kts | 270° |
| 2026-05-05 12:40 | 56.85175 | 54.22109 | 33828 ft | 421 kts | 270° |
| 2026-05-05 12:41 | 56.85008 | 54.11415 | 33826 ft | 421 kts | 270° |
| 2026-05-05 12:41 | 56.84793 | 54.00650 | 33828 ft | 421 kts | 269° |
| 2026-05-05 12:42 | 56.84520 | 53.90040 | 33827 ft | 421 kts | 269° |
| 2026-05-05 12:42 | 56.84248 | 53.79348 | 33828 ft | 421 kts | 269° |
| 2026-05-05 12:43 | 56.83982 | 53.68656 | 33820 ft | 421 kts | 269° |
| 2026-05-05 12:43 | 56.83698 | 53.57891 | 33823 ft | 422 kts | 268° |
| 2026-05-05 12:44 | 56.83402 | 53.47200 | 33822 ft | 422 kts | 268° |
| 2026-05-05 12:44 | 56.83254 | 53.36555 | 33827 ft | 422 kts | 271° |
| 2026-05-05 12:45 | 56.83322 | 53.25848 | 33833 ft | 422 kts | 272° |
| 2026-05-05 12:45 | 56.83390 | 53.15138 | 33830 ft | 422 kts | 271° |
| 2026-05-05 12:46 | 56.83381 | 53.04437 | 33833 ft | 422 kts | 271° |
| 2026-05-05 12:46 | 56.83337 | 52.93723 | 33823 ft | 422 kts | 271° |
| 2026-05-05 12:47 | 56.83285 | 52.83017 | 33838 ft | 421 kts | 270° |
| 2026-05-05 12:47 | 56.83215 | 52.72319 | 33841 ft | 421 kts | 270° |
| 2026-05-05 12:48 | 56.83126 | 52.61630 | 33857 ft | 420 kts | 270° |
| 2026-05-05 12:48 | 56.83035 | 52.50965 | 33862 ft | 420 kts | 270° |
| 2026-05-05 12:49 | 56.82933 | 52.40330 | 33861 ft | 419 kts | 270° |
| 2026-05-05 12:49 | 56.82825 | 52.29697 | 33858 ft | 419 kts | 270° |
| 2026-05-05 12:50 | 56.82707 | 52.19071 | 33853 ft | 418 kts | 270° |
| 2026-05-05 12:50 | 56.82737 | 52.08531 | 33855 ft | 418 kts | 272° |
| 2026-05-05 12:51 | 56.82952 | 51.97941 | 33856 ft | 417 kts | 273° |
| 2026-05-05 12:51 | 56.83157 | 51.87355 | 33853 ft | 417 kts | 272° |
| 2026-05-05 12:52 | 56.83290 | 51.78493 | 33852 ft | 417 kts | 272° |
| 2026-05-05 12:52 | 56.83412 | 51.67910 | 33864 ft | 416 kts | 272° |
| 2026-05-05 12:53 | 56.83516 | 51.57353 | 33872 ft | 415 kts | 272° |
| 2026-05-05 12:53 | 56.83450 | 51.46814 | 33870 ft | 415 kts | 268° |
| 2026-05-05 12:54 | 56.82774 | 51.31057 | 33868 ft | 415 kts | 266° |
| 2026-05-05 12:55 | 56.82297 | 51.20578 | 33864 ft | 414 kts | 266° |
| 2026-05-05 12:55 | 56.81876 | 51.10085 | 33855 ft | 414 kts | 267° |
| 2026-05-05 12:56 | 56.81464 | 50.99594 | 33853 ft | 414 kts | 267° |
| 2026-05-05 12:56 | 56.81042 | 50.89175 | 33851 ft | 414 kts | 266° |
| 2026-05-05 12:57 | 56.80597 | 50.78691 | 33840 ft | 414 kts | 266° |
| 2026-05-05 12:57 | 56.80143 | 50.68137 | 33851 ft | 414 kts | 266° |
| 2026-05-05 12:58 | 56.79687 | 50.57671 | 33856 ft | 413 kts | 266° |
| 2026-05-05 12:58 | 56.79226 | 50.47304 | 33856 ft | 413 kts | 266° |
| 2026-05-05 12:59 | 56.78754 | 50.36870 | 33856 ft | 413 kts | 266° |
| 2026-05-05 12:59 | 56.78268 | 50.26446 | 33848 ft | 412 kts | 266° |
| 2026-05-05 13:00 | 56.77532 | 50.10821 | 33835 ft | 412 kts | 266° |
| 2026-05-05 13:01 | 56.76510 | 49.90012 | 33837 ft | 412 kts | 265° |
| 2026-05-05 13:01 | 56.75995 | 49.79602 | 33837 ft | 412 kts | 266° |
| 2026-05-05 13:02 | 56.75689 | 49.69170 | 33852 ft | 412 kts | 268° |
| 2026-05-05 13:02 | 56.75485 | 49.58747 | 33862 ft | 411 kts | 268° |
| 2026-05-05 13:03 | 56.75244 | 49.48349 | 33855 ft | 410 kts | 268° |
| 2026-05-05 13:03 | 56.74953 | 49.37970 | 33848 ft | 410 kts | 268° |
| 2026-05-05 13:04 | 56.74641 | 49.27602 | 33847 ft | 410 kts | 267° |
| 2026-05-05 13:04 | 56.74320 | 49.17244 | 33842 ft | 410 kts | 267° |
| 2026-05-05 13:05 | 56.74007 | 49.06876 | 33836 ft | 410 kts | 268° |
| 2026-05-05 13:05 | 56.73690 | 48.96510 | 33842 ft | 410 kts | 267° |
| 2026-05-05 13:06 | 56.73354 | 48.86217 | 33839 ft | 410 kts | 267° |
| 2026-05-05 13:06 | 56.73008 | 48.75856 | 33838 ft | 410 kts | 267° |
| 2026-05-05 13:07 | 56.72653 | 48.65451 | 33843 ft | 409 kts | 267° |
| 2026-05-05 13:07 | 56.72289 | 48.55133 | 33849 ft | 408 kts | 267° |
| 2026-05-05 13:08 | 56.71927 | 48.44836 | 33846 ft | 407 kts | 267° |
| 2026-05-05 13:08 | 56.71564 | 48.34620 | 33828 ft | 407 kts | 267° |
| 2026-05-05 13:09 | 56.71187 | 48.24347 | 33823 ft | 407 kts | 266° |
| 2026-05-05 13:09 | 56.70795 | 48.14082 | 33828 ft | 406 kts | 266° |
| 2026-05-05 13:10 | 56.70394 | 48.03819 | 33827 ft | 406 kts | 266° |
| 2026-05-05 13:10 | 56.69989 | 47.93569 | 33809 ft | 407 kts | 266° |
| 2026-05-05 13:11 | 56.69576 | 47.83306 | 33803 ft | 407 kts | 266° |
| 2026-05-05 13:11 | 56.69152 | 47.73044 | 33835 ft | 406 kts | 266° |
| 2026-05-05 13:12 | 56.68719 | 47.62806 | 33839 ft | 405 kts | 266° |
| 2026-05-05 13:12 | 56.68288 | 47.52591 | 33830 ft | 405 kts | 266° |
| 2026-05-05 13:13 | 56.67846 | 47.42394 | 33821 ft | 404 kts | 266° |
| 2026-05-05 13:13 | 56.67377 | 47.32220 | 33827 ft | 404 kts | 263° |
| 2026-05-05 13:14 | 56.65889 | 47.22381 | 33810 ft | 405 kts | 251° |
| 2026-05-05 13:14 | 56.63950 | 47.12758 | 33799 ft | 406 kts | 251° |
| 2026-05-05 13:15 | 56.62021 | 47.03126 | 33804 ft | 406 kts | 251° |
| 2026-05-05 13:15 | 56.60091 | 46.93495 | 33807 ft | 406 kts | 251° |
| 2026-05-05 13:16 | 56.58143 | 46.83877 | 33809 ft | 406 kts | 251° |
| 2026-05-05 13:16 | 56.56181 | 46.74270 | 33811 ft | 406 kts | 251° |
| 2026-05-05 13:17 | 56.54210 | 46.64683 | 33798 ft | 406 kts | 251° |
| 2026-05-05 13:17 | 56.52234 | 46.55085 | 33804 ft | 407 kts | 251° |
| 2026-05-05 13:18 | 56.50247 | 46.45495 | 33819 ft | 406 kts | 251° |
| 2026-05-05 13:18 | 56.48258 | 46.35937 | 33828 ft | 405 kts | 251° |
| 2026-05-05 13:19 | 56.46277 | 46.26404 | 33823 ft | 404 kts | 251° |
| 2026-05-05 13:19 | 56.44287 | 46.16900 | 33827 ft | 404 kts | 250° |
| 2026-05-05 13:20 | 56.42284 | 46.07432 | 33805 ft | 404 kts | 250° |
| 2026-05-05 13:20 | 56.40270 | 45.97960 | 33802 ft | 404 kts | 250° |
| 2026-05-05 13:21 | 56.38252 | 45.88489 | 33795 ft | 404 kts | 250° |
| 2026-05-05 13:21 | 56.36233 | 45.79019 | 33804 ft | 404 kts | 250° |
| 2026-05-05 13:22 | 56.34208 | 45.69557 | 33798 ft | 404 kts | 250° |
| 2026-05-05 13:22 | 56.32169 | 45.60108 | 33801 ft | 404 kts | 250° |
| 2026-05-05 13:23 | 56.30133 | 45.50746 | 33795 ft | 405 kts | 250° |
| 2026-05-05 13:23 | 56.28060 | 45.41251 | 33795 ft | 405 kts | 250° |
| 2026-05-05 13:24 | 56.25997 | 45.31820 | 33798 ft | 405 kts | 250° |
| 2026-05-05 13:24 | 56.23947 | 45.22455 | 33792 ft | 405 kts | 250° |
| 2026-05-05 13:25 | 56.21883 | 45.13030 | 33787 ft | 405 kts | 250° |
| 2026-05-05 13:25 | 56.19807 | 45.03616 | 33794 ft | 405 kts | 249° |
| 2026-05-05 13:26 | 56.17713 | 44.94231 | 33829 ft | 405 kts | 249° |
| 2026-05-05 13:26 | 56.15616 | 44.84852 | 33836 ft | 404 kts | 249° |
| 2026-05-05 13:27 | 56.13520 | 44.75514 | 33819 ft | 403 kts | 249° |
| 2026-05-05 13:27 | 56.11522 | 44.66153 | 33822 ft | 401 kts | 256° |
| 2026-05-05 13:28 | 56.10721 | 44.56300 | 33812 ft | 400 kts | 264° |
| 2026-05-05 13:28 | 56.10149 | 44.46394 | 33817 ft | 400 kts | 264° |
| 2026-05-05 13:29 | 56.09557 | 44.36495 | 33801 ft | 400 kts | 263° |
| 2026-05-05 13:29 | 56.08939 | 44.26604 | 33792 ft | 400 kts | 263° |
| 2026-05-05 13:30 | 56.08320 | 44.16688 | 33793 ft | 401 kts | 263° |
| 2026-05-05 13:30 | 56.07698 | 44.06768 | 33791 ft | 401 kts | 263° |
| 2026-05-05 13:31 | 56.07072 | 43.96913 | 33798 ft | 401 kts | 263° |
| 2026-05-05 13:31 | 56.06442 | 43.86991 | 33818 ft | 401 kts | 263° |
| 2026-05-05 13:32 | 56.05795 | 43.77097 | 33819 ft | 400 kts | 263° |
| 2026-05-05 13:32 | 56.05136 | 43.67235 | 33805 ft | 399 kts | 263° |
| 2026-05-05 13:33 | 56.04478 | 43.57387 | 33803 ft | 399 kts | 263° |
| 2026-05-05 13:33 | 56.03805 | 43.47536 | 33797 ft | 399 kts | 262° |
| 2026-05-05 13:34 | 56.03126 | 43.37689 | 33804 ft | 400 kts | 263° |
| 2026-05-05 13:34 | 56.02969 | 43.27768 | 33799 ft | 400 kts | 271° |
| 2026-05-05 13:35 | 56.03144 | 43.17820 | 33802 ft | 400 kts | 270° |
| 2026-05-05 13:35 | 56.03291 | 43.07871 | 33794 ft | 400 kts | 270° |
| 2026-05-05 13:36 | 56.03448 | 42.97922 | 33798 ft | 400 kts | 270° |
| 2026-05-05 13:36 | 56.03603 | 42.87974 | 33793 ft | 400 kts | 270° |
| 2026-05-05 13:37 | 56.03734 | 42.78029 | 33787 ft | 401 kts | 270° |
| 2026-05-05 13:37 | 56.03858 | 42.68060 | 33795 ft | 401 kts | 270° |
| 2026-05-05 13:38 | 56.03962 | 42.58086 | 33794 ft | 401 kts | 267° |
| 2026-05-05 13:38 | 56.03208 | 42.49948 | 33792 ft | 400 kts | 252° |
| 2026-05-05 13:39 | 56.01142 | 42.40708 | 33795 ft | 400 kts | 249° |
| 2026-05-05 13:39 | 55.98682 | 42.29937 | 33802 ft | 401 kts | 249° |
| 2026-05-05 13:40 | 55.96942 | 42.22276 | 33792 ft | 401 kts | 249° |
| 2026-05-05 13:40 | 55.94481 | 42.11565 | 33813 ft | 402 kts | 248° |
| 2026-05-05 13:41 | 55.92695 | 42.03839 | 33831 ft | 402 kts | 249° |
| 2026-05-05 13:41 | 55.90564 | 41.94644 | 33830 ft | 401 kts | 249° |
| 2026-05-05 13:42 | 55.88423 | 41.85477 | 33821 ft | 400 kts | 248° |
| 2026-05-05 13:42 | 55.86775 | 41.76073 | 33814 ft | 399 kts | 262° |
| 2026-05-05 13:43 | 55.86422 | 41.66228 | 33822 ft | 399 kts | 266° |
| 2026-05-05 13:43 | 55.86141 | 41.56365 | 33799 ft | 399 kts | 266° |
| 2026-05-05 13:44 | 55.85823 | 41.46557 | 33804 ft | 400 kts | 266° |
| 2026-05-05 13:44 | 55.85513 | 41.36669 | 33802 ft | 400 kts | 266° |
| 2026-05-05 13:45 | 55.85191 | 41.26768 | 33804 ft | 401 kts | 266° |
| 2026-05-05 13:45 | 55.84870 | 41.16868 | 33839 ft | 401 kts | 266° |
| 2026-05-05 13:46 | 55.84531 | 41.06960 | 33845 ft | 401 kts | 266° |
| 2026-05-05 13:46 | 55.84181 | 40.97074 | 33840 ft | 400 kts | 266° |
| 2026-05-05 13:47 | 55.83834 | 40.87202 | 33844 ft | 399 kts | 266° |
| 2026-05-05 13:47 | 55.83473 | 40.77342 | 33826 ft | 399 kts | 265° |
| 2026-05-05 13:48 | 55.83107 | 40.67485 | 33816 ft | 400 kts | 265° |
| 2026-05-05 13:48 | 55.82726 | 40.57614 | 33824 ft | 400 kts | 265° |
| 2026-05-05 13:49 | 55.82343 | 40.47728 | 33599 ft | 401 kts | 265° |
| 2026-05-05 13:49 | 55.82141 | 40.42779 | 33322 ft | 401 kts | 265° |
| 2026-05-05 13:49 | 55.81931 | 40.37826 | 33075 ft | 402 kts | 265° |
| 2026-05-05 13:50 | 55.81723 | 40.32940 | 32786 ft | 401 kts | 266° |
| 2026-05-05 13:50 | 55.81515 | 40.27952 | 32313 ft | 399 kts | 266° |
| 2026-05-05 13:50 | 55.81311 | 40.23055 | 31773 ft | 397 kts | 266° |
| 2026-05-05 13:50 | 55.81108 | 40.18253 | 31268 ft | 393 kts | 266° |
| 2026-05-05 13:51 | 55.80898 | 40.13419 | 30762 ft | 390 kts | 266° |
| 2026-05-05 13:51 | 55.80686 | 40.08637 | 30259 ft | 386 kts | 266° |
| 2026-05-05 13:51 | 55.80475 | 40.03895 | 29737 ft | 383 kts | 266° |
| 2026-05-05 13:51 | 55.80267 | 39.99210 | 29229 ft | 379 kts | 266° |
| 2026-05-05 13:52 | 55.80061 | 39.94574 | 28761 ft | 374 kts | 266° |
| 2026-05-05 13:52 | 55.79857 | 39.89996 | 28290 ft | 369 kts | 265° |
| 2026-05-05 13:52 | 55.79653 | 39.85468 | 27779 ft | 366 kts | 265° |
| 2026-05-05 13:52 | 55.79446 | 39.80982 | 27282 ft | 363 kts | 265° |
| 2026-05-05 13:53 | 55.79200 | 39.76541 | 26787 ft | 360 kts | 264° |
| 2026-05-05 13:53 | 55.78914 | 39.72145 | 26299 ft | 357 kts | 263° |
| 2026-05-05 13:53 | 55.78612 | 39.67789 | 25830 ft | 354 kts | 263° |
| 2026-05-05 13:53 | 55.78308 | 39.63469 | 25351 ft | 351 kts | 263° |
| 2026-05-05 13:54 | 55.78009 | 39.59182 | 24902 ft | 348 kts | 263° |
| 2026-05-05 13:54 | 55.77716 | 39.54926 | 24458 ft | 346 kts | 263° |
| 2026-05-05 13:54 | 55.77426 | 39.50701 | 24011 ft | 343 kts | 262° |
| 2026-05-05 13:54 | 55.77136 | 39.46512 | 23586 ft | 340 kts | 262° |
| 2026-05-05 13:55 | 55.76848 | 39.42367 | 23126 ft | 337 kts | 262° |
| 2026-05-05 13:55 | 55.76565 | 39.38255 | 22700 ft | 333 kts | 262° |
| 2026-05-05 13:55 | 55.76286 | 39.34200 | 22292 ft | 329 kts | 262° |
| 2026-05-05 13:55 | 55.76010 | 39.30193 | 21870 ft | 326 kts | 262° |
| 2026-05-05 13:56 | 55.75731 | 39.26207 | 21477 ft | 325 kts | 262° |
| 2026-05-05 13:56 | 55.75451 | 39.22229 | 21068 ft | 324 kts | 262° |
| 2026-05-05 13:56 | 55.75176 | 39.18324 | 20658 ft | 322 kts | 262° |
| 2026-05-05 13:56 | 55.74895 | 39.14392 | 20251 ft | 320 kts | 262° |
| 2026-05-05 13:57 | 55.74615 | 39.10481 | 19819 ft | 318 kts | 262° |
| 2026-05-05 13:57 | 55.74335 | 39.06593 | 19401 ft | 317 kts | 262° |
| 2026-05-05 13:57 | 55.74055 | 39.02728 | 18976 ft | 315 kts | 262° |
| 2026-05-05 13:57 | 55.73773 | 38.98892 | 18558 ft | 313 kts | 262° |
| 2026-05-05 13:58 | 55.73494 | 38.95062 | 18125 ft | 312 kts | 263° |
| 2026-05-05 13:58 | 55.73459 | 38.91220 | 17661 ft | 311 kts | 274° |
| 2026-05-05 13:58 | 55.73662 | 38.87411 | 17235 ft | 309 kts | 274° |
| 2026-05-05 13:58 | 55.73855 | 38.83631 | 16823 ft | 306 kts | 274° |
| 2026-05-05 13:59 | 55.74224 | 38.76150 | 16013 ft | 302 kts | 273° |
| 2026-05-05 13:59 | 55.74402 | 38.72448 | 15603 ft | 300 kts | 273° |
| 2026-05-05 14:00 | 55.74750 | 38.65096 | 14808 ft | 297 kts | 273° |
| 2026-05-05 14:00 | 55.74924 | 38.61464 | 14415 ft | 295 kts | 274° |
| 2026-05-05 14:00 | 55.75329 | 38.57897 | 14018 ft | 296 kts | 285° |
| 2026-05-05 14:00 | 55.76160 | 38.54546 | 13618 ft | 299 kts | 297° |
| 2026-05-05 14:01 | 55.77334 | 38.51491 | 13197 ft | 299 kts | 301° |
| 2026-05-05 14:01 | 55.78539 | 38.48488 | 12758 ft | 298 kts | 301° |
| 2026-05-05 14:01 | 55.79731 | 38.45497 | 12336 ft | 296 kts | 301° |
| 2026-05-05 14:01 | 55.80913 | 38.42520 | 11933 ft | 294 kts | 301° |
| 2026-05-05 14:02 | 55.82086 | 38.39555 | 11519 ft | 292 kts | 301° |
| 2026-05-05 14:02 | 55.83264 | 38.36611 | 11106 ft | 292 kts | 302° |
| 2026-05-05 14:02 | 55.84486 | 38.33731 | 10701 ft | 291 kts | 303° |
| 2026-05-05 14:02 | 55.85726 | 38.30892 | 10295 ft | 290 kts | 303° |
| 2026-05-05 14:03 | 55.86955 | 38.28112 | 10139 ft | 280 kts | 303° |
| 2026-05-05 14:03 | 55.88144 | 38.25427 | 9915 ft | 273 kts | 303° |
| 2026-05-05 14:03 | 55.89297 | 38.22794 | 9757 ft | 268 kts | 303° |
| 2026-05-05 14:03 | 55.90437 | 38.20167 | 9635 ft | 268 kts | 303° |
| 2026-05-05 14:04 | 55.91574 | 38.17539 | 9394 ft | 269 kts | 303° |
| 2026-05-05 14:04 | 55.92717 | 38.14888 | 8902 ft | 271 kts | 303° |
| 2026-05-05 14:04 | 55.93859 | 38.12236 | 8471 ft | 270 kts | 303° |
| 2026-05-05 14:04 | 55.95001 | 38.09585 | 8111 ft | 267 kts | 303° |
| 2026-05-05 14:05 | 55.96130 | 38.06967 | 7742 ft | 265 kts | 303° |
| 2026-05-05 14:05 | 55.97252 | 38.04353 | 7331 ft | 265 kts | 303° |
| 2026-05-05 14:05 | 55.98371 | 38.01741 | 6934 ft | 264 kts | 303° |
| 2026-05-05 14:05 | 55.99481 | 37.99143 | 6510 ft | 261 kts | 302° |
| 2026-05-05 14:06 | 56.00382 | 37.96383 | 5940 ft | 257 kts | 289° |
| 2026-05-05 14:06 | 56.00844 | 37.93332 | 5510 ft | 253 kts | 278° |
| 2026-05-05 14:06 | 56.01163 | 37.90225 | 4963 ft | 257 kts | 278° |
| 2026-05-05 14:06 | 56.01490 | 37.87086 | 4601 ft | 254 kts | 278° |
| 2026-05-05 14:07 | 56.01812 | 37.84044 | 4439 ft | 244 kts | 279° |
| 2026-05-05 14:07 | 56.02125 | 37.81130 | 4324 ft | 233 kts | 278° |
| 2026-05-05 14:07 | 56.02413 | 37.78350 | 4224 ft | 222 kts | 275° |
| 2026-05-05 14:07 | 56.02295 | 37.75711 | 4129 ft | 209 kts | 252° |
| 2026-05-05 14:08 | 56.01829 | 37.73262 | 4034 ft | 208 kts | 253° |
| 2026-05-05 14:08 | 56.01426 | 37.70767 | 3704 ft | 211 kts | 256° |
| 2026-05-05 14:08 | 56.01071 | 37.68211 | 3339 ft | 211 kts | 256° |
| 2026-05-05 14:08 | 56.00712 | 37.65698 | 3026 ft | 206 kts | 255° |
| 2026-05-05 14:09 | 56.00363 | 37.63303 | 2758 ft | 191 kts | 255° |
| 2026-05-05 14:09 | 56.00042 | 37.61122 | 2513 ft | 173 kts | 256° |
| 2026-05-05 14:09 | 55.99758 | 37.59187 | 2315 ft | 149 kts | 255° |
| 2026-05-05 14:09 | 55.99501 | 37.57446 | 2106 ft | 142 kts | 255° |
| 2026-05-05 14:10 | 55.99252 | 37.55753 | 1921 ft | 139 kts | 255° |
| 2026-05-05 14:10 | 55.99006 | 37.54092 | 1743 ft | 137 kts | 255° |
| 2026-05-05 14:10 | 55.98763 | 37.52443 | 1563 ft | 137 kts | 255° |
| 2026-05-05 14:10 | 55.98520 | 37.50808 | 1393 ft | 136 kts | 255° |
| 2026-05-05 14:11 | 55.98272 | 37.49152 | 1192 ft | 139 kts | 254° |
| 2026-05-05 14:11 | 55.98032 | 37.47502 | 1018 ft | 139 kts | 255° |
| 2026-05-05 14:11 | 55.97795 | 37.45828 | 841 ft | 139 kts | 253° |
| 2026-05-05 14:11 | 55.97537 | 37.44138 | 668 ft | 138 kts | 253° |
| 2026-05-05 14:12 | 55.97304 | 37.42590 | 642 ft | 110 kts | 255° |
| 2026-05-05 14:12 | 55.97186 | 37.41786 | 646 ft | 24 kts | 255° |
| 2026-05-05 14:12 | 55.97147 | 37.41524 | 642 ft | 14 kts | 255° |
| 2026-05-05 14:12 | 55.97134 | 37.41396 | 640 ft | 9 kts | 281° |
| 2026-05-05 14:13 | 55.97203 | 37.41328 | 641 ft | 13 kts | 345° |
| 2026-05-05 14:13 | 55.97289 | 37.41287 | 640 ft | 13 kts | 345° |
| 2026-05-05 14:13 | 55.97384 | 37.41242 | 640 ft | 15 kts | 345° |
| 2026-05-05 14:13 | 55.97477 | 37.41197 | 645 ft | 11 kts | 345° |
| 2026-05-05 14:14 | 55.97537 | 37.41210 | 639 ft | 9 kts | 63° |
| 2026-05-05 14:14 | 55.97557 | 37.41366 | 639 ft | 18 kts | 76° |
| 2026-05-05 14:14 | 55.97588 | 37.41550 | 643 ft | 10 kts | 73° |
| 2026-05-05 14:14 | 55.97635 | 37.41600 | 646 ft | 8 kts | 351° |
| 2026-05-05 14:15 | 55.97686 | 37.41578 | 639 ft | 7 kts | 345° |
| 2026-05-05 14:15 | 55.97732 | 37.41557 | 643 ft | 6 kts | 345° |
| 2026-05-05 14:15 | 55.97776 | 37.41536 | 639 ft | 6 kts | 345° |
| 2026-05-05 14:15 | 55.97817 | 37.41532 | 641 ft | 7 kts | 26° |
| 2026-05-05 14:16 | 55.97834 | 37.41602 | 643 ft | 6 kts | 73° |
| 2026-05-05 14:16 | 55.97839 | 37.41636 | 644 ft | 0 kts | 74° |